sensor_id;sensor_type;location;lat;lon;timestamp;P1;durP1;ratioP1;P2;durP2;ratioP2
77324;SDS011;66387;53.440;10.390;2024-03-06T00:00:56;12.83;;;6.73;;
77324;SDS011;66387;53.440;10.390;2024-03-06T00:03:21;12.80;;;7.65;;
77324;SDS011;66387;53.440;10.390;2024-03-06T00:05:47;14.23;;;8.43;;
77324;SDS011;66387;53.440;10.390;2024-03-06T00:08:12;12.95;;;8.18;;
77324;SDS011;66387;53.440;10.390;2024-03-06T00:10:38;13.77;;;7.47;;
77324;SDS011;66387;53.440;10.390;2024-03-06T00:13:03;11.40;;;6.90;;
77324;SDS011;66387;53.440;10.390;2024-03-06T00:15:28;12.43;;;7.10;;
77324;SDS011;66387;53.440;10.390;2024-03-06T00:17:53;13.17;;;6.90;;
77324;SDS011;66387;53.440;10.390;2024-03-06T00:20:19;13.97;;;7.50;;
77324;SDS011;66387;53.440;10.390;2024-03-06T00:22:44;10.03;;;6.50;;
77324;SDS011;66387;53.440;10.390;2024-03-06T00:25:09;9.87;;;7.27;;
77324;SDS011;66387;53.440;10.390;2024-03-06T00:27:35;10.30;;;7.22;;
77324;SDS011;66387;53.440;10.390;2024-03-06T00:30:00;12.73;;;7.23;;
77324;SDS011;66387;53.440;10.390;2024-03-06T00:32:25;12.90;;;6.57;;
77324;SDS011;66387;53.440;10.390;2024-03-06T00:34:50;10.83;;;7.33;;
77324;SDS011;66387;53.440;10.390;2024-03-06T00:37:16;12.35;;;6.65;;
77324;SDS011;66387;53.440;10.390;2024-03-06T00:39:41;11.73;;;6.93;;
77324;SDS011;66387;53.440;10.390;2024-03-06T00:42:06;11.60;;;7.10;;
77324;SDS011;66387;53.440;10.390;2024-03-06T00:44:33;10.35;;;6.90;;
77324;SDS011;66387;53.440;10.390;2024-03-06T00:46:59;10.90;;;6.65;;
77324;SDS011;66387;53.440;10.390;2024-03-06T00:49:24;9.20;;;6.50;;
77324;SDS011;66387;53.440;10.390;2024-03-06T00:51:49;11.20;;;7.07;;
77324;SDS011;66387;53.440;10.390;2024-03-06T00:54:15;10.77;;;7.20;;
77324;SDS011;66387;53.440;10.390;2024-03-06T00:56:41;10.75;;;5.90;;
77324;SDS011;66387;53.440;10.390;2024-03-06T00:59:06;11.10;;;6.80;;
77324;SDS011;66387;53.440;10.390;2024-03-06T01:01:31;9.53;;;6.40;;
77324;SDS011;66387;53.440;10.390;2024-03-06T01:03:57;9.90;;;6.00;;
77324;SDS011;66387;53.440;10.390;2024-03-06T01:06:22;10.20;;;6.20;;
77324;SDS011;66387;53.440;10.390;2024-03-06T01:08:47;7.37;;;5.13;;
77324;SDS011;66387;53.440;10.390;2024-03-06T01:11:13;8.57;;;6.00;;
77324;SDS011;66387;53.440;10.390;2024-03-06T01:13:41;10.25;;;6.50;;
77324;SDS011;66387;53.440;10.390;2024-03-06T01:16:06;10.00;;;6.80;;
77324;SDS011;66387;53.440;10.390;2024-03-06T01:18:32;11.33;;;5.90;;
77324;SDS011;66387;53.440;10.390;2024-03-06T01:20:57;10.98;;;6.53;;
77324;SDS011;66387;53.440;10.390;2024-03-06T01:23:23;13.45;;;6.82;;
77324;SDS011;66387;53.440;10.390;2024-03-06T01:25:48;9.30;;;5.83;;
77324;SDS011;66387;53.440;10.390;2024-03-06T01:28:13;8.63;;;6.03;;
77324;SDS011;66387;53.440;10.390;2024-03-06T01:30:38;7.83;;;4.90;;
77324;SDS011;66387;53.440;10.390;2024-03-06T01:33:04;7.60;;;5.63;;
77324;SDS011;66387;53.440;10.390;2024-03-06T01:35:30;9.35;;;5.95;;
77324;SDS011;66387;53.440;10.390;2024-03-06T01:37:55;8.38;;;5.95;;
77324;SDS011;66387;53.440;10.390;2024-03-06T01:40:20;11.43;;;6.57;;
77324;SDS011;66387;53.440;10.390;2024-03-06T01:42:46;9.30;;;6.40;;
77324;SDS011;66387;53.440;10.390;2024-03-06T01:45:13;8.98;;;6.40;;
77324;SDS011;66387;53.440;10.390;2024-03-06T01:47:38;8.27;;;5.73;;
77324;SDS011;66387;53.440;10.390;2024-03-06T01:50:04;10.82;;;6.57;;
77324;SDS011;66387;53.440;10.390;2024-03-06T01:52:31;7.93;;;6.03;;
77324;SDS011;66387;53.440;10.390;2024-03-06T01:54:57;9.57;;;6.33;;
77324;SDS011;66387;53.440;10.390;2024-03-06T01:57:22;9.45;;;5.05;;
77324;SDS011;66387;53.440;10.390;2024-03-06T01:59:48;8.85;;;6.00;;
77324;SDS011;66387;53.440;10.390;2024-03-06T02:02:13;7.40;;;5.97;;
77324;SDS011;66387;53.440;10.390;2024-03-06T02:04:39;6.55;;;5.22;;
77324;SDS011;66387;53.440;10.390;2024-03-06T02:07:08;7.95;;;5.00;;
77324;SDS011;66387;53.440;10.390;2024-03-06T02:09:35;9.68;;;6.40;;
77324;SDS011;66387;53.440;10.390;2024-03-06T02:12:01;9.90;;;5.35;;
77324;SDS011;66387;53.440;10.390;2024-03-06T02:14:26;8.77;;;5.40;;
77324;SDS011;66387;53.440;10.390;2024-03-06T02:16:52;7.43;;;5.32;;
77324;SDS011;66387;53.440;10.390;2024-03-06T02:19:17;8.97;;;5.50;;
77324;SDS011;66387;53.440;10.390;2024-03-06T02:21:42;7.17;;;4.93;;
77324;SDS011;66387;53.440;10.390;2024-03-06T02:24:08;7.53;;;5.57;;
77324;SDS011;66387;53.440;10.390;2024-03-06T02:26:36;8.00;;;5.32;;
77324;SDS011;66387;53.440;10.390;2024-03-06T02:29:01;7.47;;;5.43;;
77324;SDS011;66387;53.440;10.390;2024-03-06T02:31:27;8.43;;;5.63;;
77324;SDS011;66387;53.440;10.390;2024-03-06T02:33:52;9.70;;;5.43;;
77324;SDS011;66387;53.440;10.390;2024-03-06T02:36:17;6.78;;;4.50;;
77324;SDS011;66387;53.440;10.390;2024-03-06T02:38:43;8.55;;;5.43;;
77324;SDS011;66387;53.440;10.390;2024-03-06T02:41:09;8.65;;;4.97;;
77324;SDS011;66387;53.440;10.390;2024-03-06T02:43:35;7.72;;;4.78;;
77324;SDS011;66387;53.440;10.390;2024-03-06T02:46:01;9.38;;;6.35;;
77324;SDS011;66387;53.440;10.390;2024-03-06T02:48:27;7.25;;;5.07;;
77324;SDS011;66387;53.440;10.390;2024-03-06T02:50:52;9.67;;;5.43;;
77324;SDS011;66387;53.440;10.390;2024-03-06T02:53:17;7.80;;;5.07;;
77324;SDS011;66387;53.440;10.390;2024-03-06T02:55:43;9.07;;;5.10;;
77324;SDS011;66387;53.440;10.390;2024-03-06T02:58:08;8.70;;;5.77;;
77324;SDS011;66387;53.440;10.390;2024-03-06T03:00:33;9.50;;;5.77;;
77324;SDS011;66387;53.440;10.390;2024-03-06T03:02:58;9.73;;;4.80;;
77324;SDS011;66387;53.440;10.390;2024-03-06T03:05:24;9.07;;;6.00;;
77324;SDS011;66387;53.440;10.390;2024-03-06T03:07:49;7.57;;;4.97;;
77324;SDS011;66387;53.440;10.390;2024-03-06T03:10:15;7.63;;;4.95;;
77324;SDS011;66387;53.440;10.390;2024-03-06T03:12:40;5.80;;;4.43;;
77324;SDS011;66387;53.440;10.390;2024-03-06T03:15:06;8.70;;;4.57;;
77324;SDS011;66387;53.440;10.390;2024-03-06T03:17:32;9.98;;;5.68;;
77324;SDS011;66387;53.440;10.390;2024-03-06T03:19:58;7.72;;;5.32;;
77324;SDS011;66387;53.440;10.390;2024-03-06T03:22:24;10.02;;;5.60;;
77324;SDS011;66387;53.440;10.390;2024-03-06T03:24:49;7.27;;;5.37;;
77324;SDS011;66387;53.440;10.390;2024-03-06T03:27:14;8.07;;;5.10;;
77324;SDS011;66387;53.440;10.390;2024-03-06T03:29:40;7.47;;;4.83;;
77324;SDS011;66387;53.440;10.390;2024-03-06T03:32:06;7.40;;;5.72;;
77324;SDS011;66387;53.440;10.390;2024-03-06T03:34:34;8.55;;;4.93;;
77324;SDS011;66387;53.440;10.390;2024-03-06T03:36:59;9.00;;;5.60;;
77324;SDS011;66387;53.440;10.390;2024-03-06T03:39:24;8.63;;;5.17;;
77324;SDS011;66387;53.440;10.390;2024-03-06T03:41:50;6.35;;;5.00;;
77324;SDS011;66387;53.440;10.390;2024-03-06T03:44:16;10.20;;;4.83;;
77324;SDS011;66387;53.440;10.390;2024-03-06T03:46:42;6.78;;;4.85;;
77324;SDS011;66387;53.440;10.390;2024-03-06T03:49:08;6.82;;;5.20;;
77324;SDS011;66387;53.440;10.390;2024-03-06T03:51:37;8.10;;;4.43;;
77324;SDS011;66387;53.440;10.390;2024-03-06T03:54:03;8.95;;;5.80;;
77324;SDS011;66387;53.440;10.390;2024-03-06T03:56:29;6.32;;;5.13;;
77324;SDS011;66387;53.440;10.390;2024-03-06T03:58:55;5.97;;;4.80;;
77324;SDS011;66387;53.440;10.390;2024-03-06T04:01:21;7.53;;;4.97;;
77324;SDS011;66387;53.440;10.390;2024-03-06T04:03:47;8.65;;;5.07;;
77324;SDS011;66387;53.440;10.390;2024-03-06T04:06:13;6.50;;;5.40;;
77324;SDS011;66387;53.440;10.390;2024-03-06T04:08:38;5.53;;;4.47;;
77324;SDS011;66387;53.440;10.390;2024-03-06T04:11:04;8.03;;;5.07;;
77324;SDS011;66387;53.440;10.390;2024-03-06T04:13:29;6.68;;;4.95;;
77324;SDS011;66387;53.440;10.390;2024-03-06T04:15:54;7.60;;;4.67;;
77324;SDS011;66387;53.440;10.390;2024-03-06T04:18:20;8.50;;;4.57;;
77324;SDS011;66387;53.440;10.390;2024-03-06T04:20:45;7.10;;;5.30;;
77324;SDS011;66387;53.440;10.390;2024-03-06T04:23:11;6.07;;;4.57;;
77324;SDS011;66387;53.440;10.390;2024-03-06T04:25:36;8.30;;;5.30;;
77324;SDS011;66387;53.440;10.390;2024-03-06T04:28:02;5.68;;;4.38;;
77324;SDS011;66387;53.440;10.390;2024-03-06T04:30:27;9.98;;;4.93;;
77324;SDS011;66387;53.440;10.390;2024-03-06T04:32:53;6.53;;;5.10;;
77324;SDS011;66387;53.440;10.390;2024-03-06T04:35:18;7.30;;;4.75;;
77324;SDS011;66387;53.440;10.390;2024-03-06T04:37:43;7.13;;;5.07;;
77324;SDS011;66387;53.440;10.390;2024-03-06T04:40:09;7.22;;;5.03;;
77324;SDS011;66387;53.440;10.390;2024-03-06T04:42:35;7.03;;;4.88;;
77324;SDS011;66387;53.440;10.390;2024-03-06T04:45:04;7.07;;;4.65;;
77324;SDS011;66387;53.440;10.390;2024-03-06T04:47:36;7.68;;;4.78;;
77324;SDS011;66387;53.440;10.390;2024-03-06T04:50:01;8.33;;;5.13;;
77324;SDS011;66387;53.440;10.390;2024-03-06T04:52:27;6.93;;;4.40;;
77324;SDS011;66387;53.440;10.390;2024-03-06T04:54:52;6.33;;;4.50;;
77324;SDS011;66387;53.440;10.390;2024-03-06T04:57:17;8.10;;;4.60;;
77324;SDS011;66387;53.440;10.390;2024-03-06T04:59:42;6.70;;;4.22;;
77324;SDS011;66387;53.440;10.390;2024-03-06T05:02:08;7.93;;;5.00;;
77324;SDS011;66387;53.440;10.390;2024-03-06T05:04:33;5.88;;;4.03;;
77324;SDS011;66387;53.440;10.390;2024-03-06T05:06:59;6.07;;;4.57;;
77324;SDS011;66387;53.440;10.390;2024-03-06T05:09:24;7.33;;;4.87;;
77324;SDS011;66387;53.440;10.390;2024-03-06T05:11:49;6.30;;;4.20;;
77324;SDS011;66387;53.440;10.390;2024-03-06T05:14:15;6.40;;;3.97;;
77324;SDS011;66387;53.440;10.390;2024-03-06T05:16:41;9.52;;;4.53;;
77324;SDS011;66387;53.440;10.390;2024-03-06T05:19:06;6.43;;;4.10;;
77324;SDS011;66387;53.440;10.390;2024-03-06T05:21:32;6.77;;;4.57;;
77324;SDS011;66387;53.440;10.390;2024-03-06T05:23:58;6.72;;;4.68;;
77324;SDS011;66387;53.440;10.390;2024-03-06T05:26:23;11.37;;;4.70;;
77324;SDS011;66387;53.440;10.390;2024-03-06T05:28:49;5.43;;;4.88;;
77324;SDS011;66387;53.440;10.390;2024-03-06T05:31:17;6.43;;;5.17;;
77324;SDS011;66387;53.440;10.390;2024-03-06T05:33:48;8.48;;;4.70;;
77324;SDS011;66387;53.440;10.390;2024-03-06T05:36:14;6.40;;;4.85;;
77324;SDS011;66387;53.440;10.390;2024-03-06T05:38:40;7.22;;;3.83;;
77324;SDS011;66387;53.440;10.390;2024-03-06T05:41:06;7.00;;;4.88;;
77324;SDS011;66387;53.440;10.390;2024-03-06T05:43:31;6.85;;;3.83;;
77324;SDS011;66387;53.440;10.390;2024-03-06T05:45:56;6.97;;;4.93;;
77324;SDS011;66387;53.440;10.390;2024-03-06T05:48:22;7.70;;;4.60;;
77324;SDS011;66387;53.440;10.390;2024-03-06T05:50:48;6.78;;;4.47;;
77324;SDS011;66387;53.440;10.390;2024-03-06T05:53:14;5.83;;;4.67;;
77324;SDS011;66387;53.440;10.390;2024-03-06T05:55:39;6.77;;;4.60;;
77324;SDS011;66387;53.440;10.390;2024-03-06T05:58:04;7.53;;;5.37;;
77324;SDS011;66387;53.440;10.390;2024-03-06T06:00:30;7.45;;;4.93;;
77324;SDS011;66387;53.440;10.390;2024-03-06T06:02:56;6.25;;;5.13;;
77324;SDS011;66387;53.440;10.390;2024-03-06T06:05:21;7.07;;;4.82;;
77324;SDS011;66387;53.440;10.390;2024-03-06T06:07:47;7.35;;;5.38;;
77324;SDS011;66387;53.440;10.390;2024-03-06T06:10:13;8.90;;;5.15;;
77324;SDS011;66387;53.440;10.390;2024-03-06T06:12:38;7.07;;;5.53;;
77324;SDS011;66387;53.440;10.390;2024-03-06T06:15:04;9.33;;;4.87;;
77324;SDS011;66387;53.440;10.390;2024-03-06T06:17:29;7.82;;;5.15;;
77324;SDS011;66387;53.440;10.390;2024-03-06T06:19:55;6.57;;;4.83;;
77324;SDS011;66387;53.440;10.390;2024-03-06T06:22:20;8.33;;;4.87;;
77324;SDS011;66387;53.440;10.390;2024-03-06T06:24:45;10.57;;;5.15;;
77324;SDS011;66387;53.440;10.390;2024-03-06T06:27:11;6.38;;;4.18;;
77324;SDS011;66387;53.440;10.390;2024-03-06T06:29:36;6.95;;;4.55;;
77324;SDS011;66387;53.440;10.390;2024-03-06T06:32:02;9.20;;;5.05;;
77324;SDS011;66387;53.440;10.390;2024-03-06T06:34:27;7.45;;;5.38;;
77324;SDS011;66387;53.440;10.390;2024-03-06T06:36:53;7.87;;;4.87;;
77324;SDS011;66387;53.440;10.390;2024-03-06T06:39:18;7.65;;;4.95;;
77324;SDS011;66387;53.440;10.390;2024-03-06T06:41:44;6.78;;;4.55;;
77324;SDS011;66387;53.440;10.390;2024-03-06T06:44:09;7.63;;;4.85;;
77324;SDS011;66387;53.440;10.390;2024-03-06T06:46:34;7.40;;;5.37;;
77324;SDS011;66387;53.440;10.390;2024-03-06T06:48:59;7.23;;;5.10;;
77324;SDS011;66387;53.440;10.390;2024-03-06T06:51:25;6.90;;;4.63;;
77324;SDS011;66387;53.440;10.390;2024-03-06T06:53:50;9.40;;;5.50;;
77324;SDS011;66387;53.440;10.390;2024-03-06T06:56:15;5.60;;;4.35;;
77324;SDS011;66387;53.440;10.390;2024-03-06T06:58:40;6.83;;;5.50;;
77324;SDS011;66387;53.440;10.390;2024-03-06T07:01:08;8.32;;;5.07;;
77324;SDS011;66387;53.440;10.390;2024-03-06T07:03:33;7.53;;;5.00;;
77324;SDS011;66387;53.440;10.390;2024-03-06T07:05:58;7.50;;;5.83;;
77324;SDS011;66387;53.440;10.390;2024-03-06T07:08:24;8.17;;;5.07;;
77324;SDS011;66387;53.440;10.390;2024-03-06T07:10:49;7.87;;;5.17;;
77324;SDS011;66387;53.440;10.390;2024-03-06T07:13:15;7.53;;;4.85;;
77324;SDS011;66387;53.440;10.390;2024-03-06T07:15:40;8.88;;;5.85;;
77324;SDS011;66387;53.440;10.390;2024-03-06T07:18:06;7.53;;;5.43;;
77324;SDS011;66387;53.440;10.390;2024-03-06T07:20:31;6.20;;;4.63;;
77324;SDS011;66387;53.440;10.390;2024-03-06T07:22:57;8.98;;;5.05;;
77324;SDS011;66387;53.440;10.390;2024-03-06T07:25:22;8.82;;;5.55;;
77324;SDS011;66387;53.440;10.390;2024-03-06T07:27:48;8.63;;;5.13;;
77324;SDS011;66387;53.440;10.390;2024-03-06T07:30:13;7.95;;;5.47;;
77324;SDS011;66387;53.440;10.390;2024-03-06T07:32:39;7.25;;;4.95;;
77324;SDS011;66387;53.440;10.390;2024-03-06T07:35:05;8.48;;;4.57;;
77324;SDS011;66387;53.440;10.390;2024-03-06T07:37:31;7.40;;;5.32;;
77324;SDS011;66387;53.440;10.390;2024-03-06T07:39:56;6.63;;;4.90;;
77324;SDS011;66387;53.440;10.390;2024-03-06T07:42:23;6.60;;;4.97;;
77324;SDS011;66387;53.440;10.390;2024-03-06T07:44:48;7.20;;;5.47;;
77324;SDS011;66387;53.440;10.390;2024-03-06T07:47:13;7.20;;;5.83;;
77324;SDS011;66387;53.440;10.390;2024-03-06T07:49:39;10.32;;;5.43;;
77324;SDS011;66387;53.440;10.390;2024-03-06T07:52:05;9.25;;;5.68;;
77324;SDS011;66387;53.440;10.390;2024-03-06T07:54:30;7.30;;;5.30;;
77324;SDS011;66387;53.440;10.390;2024-03-06T07:56:55;8.60;;;5.83;;
77324;SDS011;66387;53.440;10.390;2024-03-06T07:59:20;10.27;;;5.53;;
77324;SDS011;66387;53.440;10.390;2024-03-06T08:01:46;8.17;;;5.87;;
77324;SDS011;66387;53.440;10.390;2024-03-06T08:04:11;6.72;;;5.35;;
77324;SDS011;66387;53.440;10.390;2024-03-06T08:06:36;7.83;;;5.47;;
77324;SDS011;66387;53.440;10.390;2024-03-06T08:09:02;7.90;;;5.65;;
77324;SDS011;66387;53.440;10.390;2024-03-06T08:11:27;8.77;;;6.05;;
77324;SDS011;66387;53.440;10.390;2024-03-06T08:13:59;10.10;;;5.67;;
77324;SDS011;66387;53.440;10.390;2024-03-06T08:16:25;8.70;;;5.88;;
77324;SDS011;66387;53.440;10.390;2024-03-06T08:18:50;8.73;;;6.40;;
77324;SDS011;66387;53.440;10.390;2024-03-06T08:21:15;8.60;;;7.17;;
77324;SDS011;66387;53.440;10.390;2024-03-06T08:23:40;12.70;;;6.00;;
77324;SDS011;66387;53.440;10.390;2024-03-06T08:26:06;7.47;;;5.97;;
77324;SDS011;66387;53.440;10.390;2024-03-06T08:28:31;8.23;;;7.00;;
77324;SDS011;66387;53.440;10.390;2024-03-06T08:30:56;8.50;;;7.43;;
77324;SDS011;66387;53.440;10.390;2024-03-06T08:33:21;8.73;;;5.67;;
77324;SDS011;66387;53.440;10.390;2024-03-06T08:35:47;11.27;;;6.53;;
77324;SDS011;66387;53.440;10.390;2024-03-06T08:38:13;10.20;;;6.78;;
77324;SDS011;66387;53.440;10.390;2024-03-06T08:40:38;9.97;;;6.73;;
77324;SDS011;66387;53.440;10.390;2024-03-06T08:43:04;9.52;;;6.00;;
77324;SDS011;66387;53.440;10.390;2024-03-06T08:45:29;10.82;;;7.82;;
77324;SDS011;66387;53.440;10.390;2024-03-06T08:47:54;10.93;;;8.23;;
77324;SDS011;66387;53.440;10.390;2024-03-06T08:50:20;12.27;;;8.63;;
77324;SDS011;66387;53.440;10.390;2024-03-06T08:52:46;13.52;;;9.63;;
77324;SDS011;66387;53.440;10.390;2024-03-06T08:55:11;13.50;;;9.13;;
77324;SDS011;66387;53.440;10.390;2024-03-06T08:57:37;14.00;;;9.03;;
77324;SDS011;66387;53.440;10.390;2024-03-06T09:00:03;12.98;;;8.45;;
77324;SDS011;66387;53.440;10.390;2024-03-06T09:02:29;13.65;;;8.00;;
77324;SDS011;66387;53.440;10.390;2024-03-06T09:04:55;12.98;;;7.95;;
77324;SDS011;66387;53.440;10.390;2024-03-06T09:07:20;10.63;;;7.95;;
77324;SDS011;66387;53.440;10.390;2024-03-06T09:09:48;13.93;;;8.32;;
77324;SDS011;66387;53.440;10.390;2024-03-06T09:12:14;13.43;;;9.27;;
77324;SDS011;66387;53.440;10.390;2024-03-06T09:14:39;12.77;;;9.32;;
77324;SDS011;66387;53.440;10.390;2024-03-06T09:17:06;12.88;;;8.90;;
77324;SDS011;66387;53.440;10.390;2024-03-06T09:19:34;12.80;;;8.38;;
77324;SDS011;66387;53.440;10.390;2024-03-06T09:21:59;11.03;;;8.90;;
77324;SDS011;66387;53.440;10.390;2024-03-06T09:24:25;14.37;;;8.43;;
77324;SDS011;66387;53.440;10.390;2024-03-06T09:26:50;11.02;;;8.13;;
77324;SDS011;66387;53.440;10.390;2024-03-06T09:29:17;10.23;;;7.25;;
77324;SDS011;66387;53.440;10.390;2024-03-06T09:31:42;9.98;;;7.22;;
77324;SDS011;66387;53.440;10.390;2024-03-06T09:34:07;11.47;;;7.33;;
77324;SDS011;66387;53.440;10.390;2024-03-06T09:36:37;8.88;;;5.97;;
77324;SDS011;66387;53.440;10.390;2024-03-06T09:39:02;11.63;;;7.07;;
77324;SDS011;66387;53.440;10.390;2024-03-06T09:41:30;8.45;;;6.38;;
77324;SDS011;66387;53.440;10.390;2024-03-06T09:43:56;10.32;;;7.78;;
77324;SDS011;66387;53.440;10.390;2024-03-06T09:46:22;9.13;;;7.22;;
77324;SDS011;66387;53.440;10.390;2024-03-06T09:48:47;10.40;;;6.55;;
77324;SDS011;66387;53.440;10.390;2024-03-06T09:51:15;10.40;;;6.93;;
77324;SDS011;66387;53.440;10.390;2024-03-06T09:53:41;7.80;;;6.10;;
77324;SDS011;66387;53.440;10.390;2024-03-06T09:56:08;11.60;;;7.55;;
77324;SDS011;66387;53.440;10.390;2024-03-06T09:58:35;10.50;;;6.55;;
77324;SDS011;66387;53.440;10.390;2024-03-06T10:01:00;8.90;;;6.05;;
77324;SDS011;66387;53.440;10.390;2024-03-06T10:03:28;9.18;;;6.68;;
77324;SDS011;66387;53.440;10.390;2024-03-06T10:05:54;8.30;;;6.20;;
77324;SDS011;66387;53.440;10.390;2024-03-06T10:08:20;9.73;;;6.50;;
77324;SDS011;66387;53.440;10.390;2024-03-06T10:10:47;8.05;;;6.28;;
77324;SDS011;66387;53.440;10.390;2024-03-06T10:13:15;11.25;;;6.93;;
77324;SDS011;66387;53.440;10.390;2024-03-06T10:15:41;8.20;;;5.38;;
77324;SDS011;66387;53.440;10.390;2024-03-06T10:18:13;8.73;;;6.20;;
77324;SDS011;66387;53.440;10.390;2024-03-06T10:20:43;9.82;;;6.43;;
77324;SDS011;66387;53.440;10.390;2024-03-06T10:23:08;10.07;;;6.40;;
77324;SDS011;66387;53.440;10.390;2024-03-06T10:25:34;7.25;;;5.55;;
77324;SDS011;66387;53.440;10.390;2024-03-06T10:30:29;10.18;;;5.75;;
77324;SDS011;66387;53.440;10.390;2024-03-06T10:32:54;9.10;;;6.07;;
77324;SDS011;66387;53.440;10.390;2024-03-06T10:35:19;8.98;;;6.03;;
77324;SDS011;66387;53.440;10.390;2024-03-06T10:37:46;11.55;;;5.75;;
77324;SDS011;66387;53.440;10.390;2024-03-06T10:40:11;8.30;;;5.72;;
77324;SDS011;66387;53.440;10.390;2024-03-06T10:42:40;7.60;;;5.68;;
77324;SDS011;66387;53.440;10.390;2024-03-06T10:45:07;6.90;;;5.45;;
77324;SDS011;66387;53.440;10.390;2024-03-06T10:47:35;6.97;;;5.70;;
77324;SDS011;66387;53.440;10.390;2024-03-06T10:50:02;8.73;;;5.53;;
77324;SDS011;66387;53.440;10.390;2024-03-06T10:52:29;8.80;;;5.43;;
77324;SDS011;66387;53.440;10.390;2024-03-06T10:57:24;7.82;;;5.43;;
77324;SDS011;66387;53.440;10.390;2024-03-06T10:59:50;10.45;;;6.25;;
77324;SDS011;66387;53.440;10.390;2024-03-06T11:02:17;8.32;;;5.78;;
77324;SDS011;66387;53.440;10.390;2024-03-06T11:04:43;9.00;;;5.70;;
77324;SDS011;66387;53.440;10.390;2024-03-06T11:07:09;10.05;;;5.47;;
77324;SDS011;66387;53.440;10.390;2024-03-06T11:09:35;8.70;;;6.40;;
77324;SDS011;66387;53.440;10.390;2024-03-06T11:12:01;8.10;;;5.05;;
77324;SDS011;66387;53.440;10.390;2024-03-06T11:14:27;11.98;;;6.10;;
77324;SDS011;66387;53.440;10.390;2024-03-06T11:19:22;8.90;;;5.57;;
77324;SDS011;66387;53.440;10.390;2024-03-06T11:21:47;8.47;;;6.17;;
77324;SDS011;66387;53.440;10.390;2024-03-06T11:32:36;7.80;;;6.13;;
77324;SDS011;66387;53.440;10.390;2024-03-06T11:35:22;8.20;;;5.78;;
77324;SDS011;66387;53.440;10.390;2024-03-06T11:37:47;9.50;;;6.15;;
77324;SDS011;66387;53.440;10.390;2024-03-06T11:40:17;9.40;;;6.22;;
77324;SDS011;66387;53.440;10.390;2024-03-06T11:42:49;9.88;;;6.07;;
77324;SDS011;66387;53.440;10.390;2024-03-06T11:45:17;6.93;;;5.75;;
77324;SDS011;66387;53.440;10.390;2024-03-06T11:48:02;8.15;;;7.05;;
77324;SDS011;66387;53.440;10.390;2024-03-06T11:50:28;8.43;;;6.40;;
77324;SDS011;66387;53.440;10.390;2024-03-06T11:52:56;9.15;;;5.80;;
77324;SDS011;66387;53.440;10.390;2024-03-06T11:55:22;7.78;;;5.78;;
77324;SDS011;66387;53.440;10.390;2024-03-06T11:57:50;10.93;;;6.10;;
77324;SDS011;66387;53.440;10.390;2024-03-06T12:00:15;10.40;;;6.60;;
77324;SDS011;66387;53.440;10.390;2024-03-06T12:02:41;7.78;;;6.10;;
77324;SDS011;66387;53.440;10.390;2024-03-06T12:05:08;9.40;;;5.88;;
77324;SDS011;66387;53.440;10.390;2024-03-06T12:07:44;9.30;;;5.82;;
77324;SDS011;66387;53.440;10.390;2024-03-06T12:10:12;7.28;;;5.80;;
77324;SDS011;66387;53.440;10.390;2024-03-06T12:12:38;8.05;;;5.30;;
77324;SDS011;66387;53.440;10.390;2024-03-06T12:15:05;8.23;;;5.68;;
77324;SDS011;66387;53.440;10.390;2024-03-06T12:17:31;7.63;;;5.65;;
77324;SDS011;66387;53.440;10.390;2024-03-06T12:19:56;7.90;;;5.53;;
77324;SDS011;66387;53.440;10.390;2024-03-06T12:22:25;8.35;;;5.75;;
77324;SDS011;66387;53.440;10.390;2024-03-06T12:25:00;8.40;;;5.63;;
77324;SDS011;66387;53.440;10.390;2024-03-06T12:27:25;8.20;;;5.32;;
77324;SDS011;66387;53.440;10.390;2024-03-06T12:29:52;6.70;;;4.90;;
77324;SDS011;66387;53.440;10.390;2024-03-06T12:32:17;8.60;;;5.63;;
77324;SDS011;66387;53.440;10.390;2024-03-06T12:34:43;8.82;;;5.65;;
77324;SDS011;66387;53.440;10.390;2024-03-06T12:37:08;8.40;;;5.80;;
77324;SDS011;66387;53.440;10.390;2024-03-06T12:39:35;9.07;;;6.10;;
77324;SDS011;66387;53.440;10.390;2024-03-06T12:42:00;8.20;;;5.40;;
77324;SDS011;66387;53.440;10.390;2024-03-06T12:44:26;8.90;;;5.97;;
77324;SDS011;66387;53.440;10.390;2024-03-06T12:46:51;7.50;;;5.47;;
77324;SDS011;66387;53.440;10.390;2024-03-06T12:49:17;7.43;;;5.63;;
77324;SDS011;66387;53.440;10.390;2024-03-06T12:51:43;8.82;;;5.72;;
77324;SDS011;66387;53.440;10.390;2024-03-06T12:54:09;7.30;;;5.47;;
77324;SDS011;66387;53.440;10.390;2024-03-06T12:56:34;6.93;;;5.47;;
77324;SDS011;66387;53.440;10.390;2024-03-06T12:58:59;7.07;;;5.43;;
77324;SDS011;66387;53.440;10.390;2024-03-06T13:01:24;6.90;;;5.33;;
77324;SDS011;66387;53.440;10.390;2024-03-06T13:03:50;8.10;;;5.43;;
77324;SDS011;66387;53.440;10.390;2024-03-06T13:06:15;8.47;;;5.60;;
77324;SDS011;66387;53.440;10.390;2024-03-06T13:08:40;8.63;;;6.20;;
77324;SDS011;66387;53.440;10.390;2024-03-06T13:11:06;7.88;;;5.03;;
77324;SDS011;66387;53.440;10.390;2024-03-06T13:13:31;8.65;;;6.45;;
77324;SDS011;66387;53.440;10.390;2024-03-06T13:15:59;8.98;;;5.85;;
77324;SDS011;66387;53.440;10.390;2024-03-06T13:18:24;10.05;;;5.68;;
77324;SDS011;66387;53.440;10.390;2024-03-06T13:20:50;7.95;;;5.35;;
77324;SDS011;66387;53.440;10.390;2024-03-06T13:23:16;6.60;;;4.97;;
77324;SDS011;66387;53.440;10.390;2024-03-06T13:25:41;7.72;;;5.75;;
77324;SDS011;66387;53.440;10.390;2024-03-06T13:28:07;8.52;;;5.78;;
77324;SDS011;66387;53.440;10.390;2024-03-06T13:30:33;9.90;;;5.65;;
77324;SDS011;66387;53.440;10.390;2024-03-06T13:32:58;7.23;;;5.20;;
77324;SDS011;66387;53.440;10.390;2024-03-06T13:35:24;8.03;;;6.00;;
77324;SDS011;66387;53.440;10.390;2024-03-06T13:37:49;8.05;;;5.80;;
77324;SDS011;66387;53.440;10.390;2024-03-06T13:40:15;8.52;;;5.40;;
77324;SDS011;66387;53.440;10.390;2024-03-06T13:42:40;5.80;;;4.72;;
77324;SDS011;66387;53.440;10.390;2024-03-06T13:45:06;8.63;;;5.97;;
77324;SDS011;66387;53.440;10.390;2024-03-06T13:47:39;7.22;;;5.60;;
77324;SDS011;66387;53.440;10.390;2024-03-06T13:50:06;8.00;;;5.90;;
77324;SDS011;66387;53.440;10.390;2024-03-06T13:52:36;8.95;;;5.57;;
77324;SDS011;66387;53.440;10.390;2024-03-06T13:55:01;9.88;;;5.97;;
77324;SDS011;66387;53.440;10.390;2024-03-06T13:57:29;7.85;;;5.15;;
77324;SDS011;66387;53.440;10.390;2024-03-06T13:59:54;7.35;;;4.60;;
77324;SDS011;66387;53.440;10.390;2024-03-06T14:02:20;8.55;;;5.18;;
77324;SDS011;66387;53.440;10.390;2024-03-06T14:04:45;7.78;;;5.63;;
77324;SDS011;66387;53.440;10.390;2024-03-06T14:07:11;7.72;;;5.57;;
77324;SDS011;66387;53.440;10.390;2024-03-06T14:09:36;6.33;;;5.10;;
77324;SDS011;66387;53.440;10.390;2024-03-06T14:12:02;7.05;;;4.80;;
77324;SDS011;66387;53.440;10.390;2024-03-06T14:14:27;7.18;;;5.03;;
77324;SDS011;66387;53.440;10.390;2024-03-06T14:16:53;7.28;;;4.75;;
77324;SDS011;66387;53.440;10.390;2024-03-06T14:19:20;6.78;;;5.22;;
77324;SDS011;66387;53.440;10.390;2024-03-06T14:21:46;6.70;;;4.65;;
77324;SDS011;66387;53.440;10.390;2024-03-06T14:24:12;8.38;;;5.13;;
77324;SDS011;66387;53.440;10.390;2024-03-06T14:26:37;8.20;;;4.90;;
77324;SDS011;66387;53.440;10.390;2024-03-06T14:29:03;8.27;;;5.50;;
77324;SDS011;66387;53.440;10.390;2024-03-06T14:31:32;8.25;;;5.75;;
77324;SDS011;66387;53.440;10.390;2024-03-06T14:33:57;8.02;;;5.40;;
77324;SDS011;66387;53.440;10.390;2024-03-06T14:36:22;6.60;;;5.30;;
77324;SDS011;66387;53.440;10.390;2024-03-06T14:38:49;9.07;;;5.28;;